Time,TemperatureF,DewpointF,PressureIn,WindDirection,WindDirectionDegrees,WindSpeedMPH,WindSpeedGustMPH,Humidity,HourlyPrecipIn,Conditions,Clouds,dailyrainin,SoftwareType,DateUTC
2013-06-13 00:01:00,61.7,52.5,29.82,NW,315,0.0,0.0,72,0.00,,,0.00,WUHU21636XXSP,2013-06-13 04:01:00,
2013-06-13 00:02:00,61.7,52.5,29.82,NW,315,0.0,0.0,72,0.00,,,0.00,WUHU21636XXSP,2013-06-13 04:02:00,
2013-06-13 00:07:00,61.5,52.3,29.82,NW,315,0.0,0.0,72,0.00,,,0.00,WUHU21636XXSP,2013-06-13 04:07:00,
2013-06-13 00:13:00,61.3,52.2,29.81,NW,315,0.0,0.0,72,0.00,,,0.00,WUHU21636XXSP,2013-06-13 04:13:00,
2013-06-13 00:18:00,61.0,52.5,29.80,NW,315,0.0,0.0,74,0.00,,,0.00,WUHU21636XXSP,2013-06-13 04:18:00,
2013-06-13 00:23:00,61.0,52.5,29.80,NW,315,0.0,0.0,74,0.00,,,0.00,WUHU21636XXSP,2013-06-13 04:23:00,
2013-06-13 00:28:00,60.6,52.3,29.80,NW,315,0.0,0.0,74,0.00,,,0.00,WUHU21636XXSP,2013-06-13 04:28:00,
2013-06-13 00:33:00,60.4,52.2,29.80,NW,315,0.0,0.0,74,0.00,,,0.00,WUHU21636XXSP,2013-06-13 04:33:00,
2013-06-13 00:38:00,60.4,52.2,29.80,NW,315,0.0,0.0,75,0.00,,,0.00,WUHU21636XXSP,2013-06-13 04:38:00,
2013-06-13 00:43:00,60.1,52.2,29.80,NW,315,0.0,0.0,75,0.00,,,0.00,WUHU21636XXSP,2013-06-13 04:43:00,
2013-06-13 00:48:00,59.9,52.3,29.80,NW,315,0.0,0.0,76,0.00,,,0.00,WUHU21636XXSP,2013-06-13 04:48:00,
2013-06-13 00:53:00,59.7,52.2,29.80,NW,315,0.0,0.0,76,0.00,,,0.00,WUHU21636XXSP,2013-06-13 04:53:00,
2013-06-13 00:58:00,59.4,51.8,29.80,NW,315,0.0,0.0,76,0.00,,,0.00,WUHU21636XXSP,2013-06-13 04:58:00,
2013-06-13 01:03:00,59.2,51.6,29.80,NW,315,0.0,0.0,76,0.00,,,0.00,WUHU21636XXSP,2013-06-13 05:03:00,
2013-06-13 01:08:00,59.0,51.4,29.80,NW,315,0.0,0.0,77,0.00,,,0.00,WUHU21636XXSP,2013-06-13 05:08:00,
2013-06-13 01:13:00,58.8,52.3,29.80,NW,315,0.0,0.0,79,0.00,,,0.00,WUHU21636XXSP,2013-06-13 05:13:00,
2013-06-13 01:18:00,58.6,52.2,29.80,NW,315,0.0,0.0,79,0.00,,,0.00,WUHU21636XXSP,2013-06-13 05:18:00,
2013-06-13 01:23:00,58.6,52.2,29.80,NW,315,0.0,0.0,78,0.00,,,0.00,WUHU21636XXSP,2013-06-13 05:23:00,
2013-06-13 01:28:00,58.3,51.4,29.80,NW,315,0.0,0.0,79,0.00,,,0.00,WUHU21636XXSP,2013-06-13 05:28:00,
2013-06-13 01:33:00,58.3,51.4,29.80,NW,315,0.0,0.0,79,0.00,,,0.00,WUHU21636XXSP,2013-06-13 05:33:00,
2013-06-13 01:38:00,58.1,51.6,29.80,NW,315,0.0,0.0,79,0.00,,,0.00,WUHU21636XXSP,2013-06-13 05:38:00,
2013-06-13 01:43:00,57.9,51.4,29.80,NW,315,0.0,0.0,79,0.00,,,0.00,WUHU21636XXSP,2013-06-13 05:43:00,
2013-06-13 01:48:00,57.7,51.3,29.80,NW,315,0.0,0.0,79,0.00,,,0.00,WUHU21636XXSP,2013-06-13 05:48:00,
2013-06-13 01:53:00,57.7,51.3,29.80,NW,315,0.0,0.0,79,0.00,,,0.00,WUHU21636XXSP,2013-06-13 05:53:00,
2013-06-13 01:58:00,57.6,51.1,29.80,NW,315,0.0,0.0,79,0.00,,,0.00,WUHU21636XXSP,2013-06-13 05:58:00,
2013-06-13 02:03:00,57.2,50.7,29.80,NW,315,0.0,0.0,79,0.00,,,0.00,WUHU21636XXSP,2013-06-13 06:03:00,
2013-06-13 02:08:00,57.0,50.9,29.80,NW,315,0.0,0.0,80,0.00,,,0.00,WUHU21636XXSP,2013-06-13 06:08:00,
2013-06-13 02:13:00,56.8,51.3,29.81,NW,315,0.0,0.0,82,0.00,,,0.00,WUHU21636XXSP,2013-06-13 06:13:00,
2013-06-13 02:18:00,56.5,51.6,29.80,NW,315,0.0,0.0,84,0.00,,,0.00,WUHU21636XXSP,2013-06-13 06:18:00,
2013-06-13 02:23:00,56.5,51.6,29.80,NW,315,0.0,0.0,84,0.00,,,0.00,WUHU21636XXSP,2013-06-13 06:23:00,
2013-06-13 02:28:00,56.5,51.6,29.80,NW,315,0.0,0.0,84,0.00,,,0.00,WUHU21636XXSP,2013-06-13 06:28:00,
2013-06-13 02:33:00,56.1,50.9,29.81,NW,315,0.0,0.0,83,0.00,,,0.00,WUHU21636XXSP,2013-06-13 06:33:00,
2013-06-13 02:38:00,56.1,50.9,29.81,NW,315,0.0,0.0,83,0.00,,,0.00,WUHU21636XXSP,2013-06-13 06:38:00,
2013-06-13 02:43:00,55.6,50.4,29.81,NW,315,0.0,0.0,83,0.00,,,0.00,WUHU21636XXSP,2013-06-13 06:43:00,
2013-06-13 02:48:00,55.6,50.4,29.81,NW,315,0.0,0.0,85,0.00,,,0.00,WUHU21636XXSP,2013-06-13 06:48:00,
2013-06-13 02:53:00,55.2,50.7,29.81,NW,315,0.0,0.0,85,0.00,,,0.00,WUHU21636XXSP,2013-06-13 06:53:00,
2013-06-13 02:58:00,55.0,50.5,29.81,NW,315,0.0,0.0,84,0.00,,,0.00,WUHU21636XXSP,2013-06-13 06:58:00,
2013-06-13 03:03:00,55.0,50.5,29.80,NW,315,0.0,0.0,84,0.00,,,0.00,WUHU21636XXSP,2013-06-13 07:03:00,
2013-06-13 03:08:00,54.7,49.8,29.80,NW,315,0.0,0.0,84,0.00,,,0.00,WUHU21636XXSP,2013-06-13 07:08:00,
2013-06-13 03:13:00,54.7,49.8,29.81,NW,315,0.0,0.0,84,0.00,,,0.00,WUHU21636XXSP,2013-06-13 07:13:00,
2013-06-13 03:18:00,54.7,49.8,29.80,NW,315,0.0,0.0,84,0.00,,,0.00,WUHU21636XXSP,2013-06-13 07:18:00,
2013-06-13 03:23:00,54.5,49.6,29.80,NW,315,0.0,0.0,84,0.00,,,0.00,WUHU21636XXSP,2013-06-13 07:23:00,
2013-06-13 03:28:00,54.3,49.5,29.81,NW,315,0.0,0.0,84,0.00,,,0.00,WUHU21636XXSP,2013-06-13 07:28:00,
2013-06-13 03:33:00,54.1,49.3,29.80,NW,315,0.0,0.0,84,0.00,,,0.00,WUHU21636XXSP,2013-06-13 07:33:00,
2013-06-13 03:38:00,53.8,48.9,29.81,NW,315,0.0,0.0,84,0.00,,,0.00,WUHU21636XXSP,2013-06-13 07:38:00,
2013-06-13 03:43:00,53.8,48.9,29.81,NW,315,0.0,0.0,85,0.00,,,0.00,WUHU21636XXSP,2013-06-13 07:43:00,
2013-06-13 03:48:00,53.8,48.9,29.81,NW,315,0.0,0.0,85,0.00,,,0.00,WUHU21636XXSP,2013-06-13 07:48:00,
2013-06-13 03:53:00,53.8,48.9,29.81,NW,315,0.0,0.0,85,0.00,,,0.00,WUHU21636XXSP,2013-06-13 07:53:00,
2013-06-13 03:58:00,53.4,48.9,29.81,NW,315,0.0,0.0,85,0.00,,,0.00,WUHU21636XXSP,2013-06-13 07:58:00,
2013-06-13 04:03:00,53.4,48.9,29.81,NW,315,0.0,0.0,85,0.00,,,0.00,WUHU21636XXSP,2013-06-13 08:03:00,
2013-06-13 04:08:00,53.2,48.7,29.81,NW,315,0.0,0.0,86,0.00,,,0.00,WUHU21636XXSP,2013-06-13 08:08:00,
2013-06-13 04:13:00,52.9,48.7,29.81,NW,315,0.0,0.0,86,0.00,,,0.00,WUHU21636XXSP,2013-06-13 08:13:00,
2013-06-13 04:18:00,52.9,48.6,29.81,NW,315,0.0,0.0,86,0.00,,,0.00,WUHU21636XXSP,2013-06-13 08:18:00,
2013-06-13 04:23:00,52.5,48.4,29.81,NW,315,0.0,0.0,86,0.00,,,0.00,WUHU21636XXSP,2013-06-13 08:23:00,
2013-06-13 04:28:00,52.2,48.0,29.81,NW,315,0.0,0.0,86,0.00,,,0.00,WUHU21636XXSP,2013-06-13 08:28:00,
2013-06-13 04:33:00,52.0,48.0,29.81,NW,315,0.0,0.0,86,0.00,,,0.00,WUHU21636XXSP,2013-06-13 08:33:00,
2013-06-13 04:38:00,51.6,47.3,29.81,NW,315,0.0,0.0,86,0.00,,,0.00,WUHU21636XXSP,2013-06-13 08:38:00,
2013-06-13 04:43:00,51.4,47.3,29.81,NW,315,0.0,0.0,86,0.02,,,0.02,WUHU21636XXSP,2013-06-13 08:43:00,
2013-06-13 04:48:00,51.1,46.9,29.81,NW,315,0.0,12.9,86,0.02,,,0.02,WUHU21636XXSP,2013-06-13 08:48:00,
2013-06-13 04:53:00,51.3,47.3,29.81,NW,315,0.0,12.9,87,0.02,,,0.02,WUHU21636XXSP,2013-06-13 08:53:00,
2013-06-13 04:58:00,51.4,47.5,29.81,NW,315,0.0,0.0,87,0.02,,,0.02,WUHU21636XXSP,2013-06-13 08:58:00,
2013-06-13 05:03:00,51.4,47.5,29.81,NW,315,0.0,0.0,87,0.02,,,0.02,WUHU21636XXSP,2013-06-13 09:03:00,
2013-06-13 05:08:00,51.4,47.5,29.82,NW,315,0.0,0.0,87,0.02,,,0.02,WUHU21636XXSP,2013-06-13 09:08:00,
2013-06-13 05:13:00,51.4,47.5,29.82,NW,315,0.0,0.0,87,0.02,,,0.02,WUHU21636XXSP,2013-06-13 09:13:00,
2013-06-13 05:18:00,51.4,47.5,29.82,NW,315,0.0,0.0,87,0.02,,,0.02,WUHU21636XXSP,2013-06-13 09:18:00,
2013-06-13 05:23:00,51.6,47.7,29.82,NW,315,0.0,0.0,87,0.02,,,0.02,WUHU21636XXSP,2013-06-13 09:23:00,
2013-06-13 05:28:00,51.6,47.7,29.82,NW,315,0.0,0.0,87,0.02,,,0.02,WUHU21636XXSP,2013-06-13 09:28:00,
2013-06-13 05:33:00,51.4,47.5,29.82,NW,315,0.0,0.0,87,0.02,,,0.02,WUHU21636XXSP,2013-06-13 09:33:00,
2013-06-13 05:38:00,51.1,47.1,29.82,NW,315,0.0,0.0,87,0.02,,,0.02,WUHU21636XXSP,2013-06-13 09:38:00,
2013-06-13 05:43:00,50.5,46.6,29.82,NW,315,0.0,0.0,87,0.00,,,0.02,WUHU21636XXSP,2013-06-13 09:43:00,
2013-06-13 05:48:00,50.2,46.2,29.82,NW,315,0.0,0.0,87,0.00,,,0.02,WUHU21636XXSP,2013-06-13 09:48:00,
2013-06-13 05:53:00,50.2,46.2,29.82,NW,315,0.0,0.0,87,0.00,,,0.02,WUHU21636XXSP,2013-06-13 09:53:00,
2013-06-13 05:58:00,50.0,46.0,29.83,NW,315,0.0,0.0,87,0.00,,,0.02,WUHU21636XXSP,2013-06-13 09:58:00,
2013-06-13 06:03:00,50.2,46.2,29.83,NW,315,0.0,0.0,87,0.00,,,0.02,WUHU21636XXSP,2013-06-13 10:03:00,
2013-06-13 06:08:00,50.2,46.2,29.83,NW,315,0.0,0.0,87,0.00,,,0.02,WUHU21636XXSP,2013-06-13 10:08:00,
2013-06-13 06:13:00,50.4,46.8,29.84,NW,315,0.0,0.0,88,0.00,,,0.02,WUHU21636XXSP,2013-06-13 10:13:00,
2013-06-13 06:18:00,50.4,46.8,29.84,NW,315,0.0,0.0,88,0.00,,,0.02,WUHU21636XXSP,2013-06-13 10:18:00,
2013-06-13 06:23:00,50.4,46.8,29.84,NW,315,0.0,0.0,88,0.00,,,0.02,WUHU21636XXSP,2013-06-13 10:23:00,
2013-06-13 06:28:00,50.5,46.9,29.84,NW,315,0.0,0.0,88,0.00,,,0.02,WUHU21636XXSP,2013-06-13 10:28:00,
2013-06-13 06:33:00,50.7,47.1,29.84,NW,315,0.0,0.0,88,0.00,,,0.02,WUHU21636XXSP,2013-06-13 10:33:00,
2013-06-13 06:38:00,50.9,47.3,29.84,NW,315,0.0,0.0,88,0.00,,,0.02,WUHU21636XXSP,2013-06-13 10:38:00,
2013-06-13 06:43:00,51.1,47.5,29.84,NW,315,0.0,0.0,88,0.00,,,0.02,WUHU21636XXSP,2013-06-13 10:43:00,
2013-06-13 06:48:00,50.9,47.3,29.84,NW,315,0.0,0.0,88,0.00,,,0.02,WUHU21636XXSP,2013-06-13 10:48:00,
2013-06-13 06:53:00,50.7,47.1,29.85,NW,315,0.0,0.0,88,0.00,,,0.02,WUHU21636XXSP,2013-06-13 10:53:00,
2013-06-13 06:58:00,50.7,47.1,29.85,NW,315,0.0,0.0,88,0.00,,,0.02,WUHU21636XXSP,2013-06-13 10:58:00,
2013-06-13 07:03:00,51.1,47.5,29.85,NW,315,0.6,0.6,88,0.00,,,0.02,WUHU21636XXSP,2013-06-13 11:03:00,
2013-06-13 07:08:00,51.3,47.7,29.85,NW,315,0.6,0.6,88,0.00,,,0.02,WUHU21636XXSP,2013-06-13 11:08:00,
2013-06-13 07:12:00,51.4,47.8,29.85,NW,315,0.0,0.6,88,0.00,,,0.02,WUHU21636XXSP,2013-06-13 11:12:00,
2013-06-13 07:17:00,51.6,48.0,29.85,NW,315,0.0,0.6,88,0.00,,,0.02,WUHU21636XXSP,2013-06-13 11:17:00,
2013-06-13 07:22:00,51.8,48.2,29.86,NNE,22,0.0,0.0,88,0.00,,,0.02,WUHU21636XXSP,2013-06-13 11:22:00,
2013-06-13 07:27:00,52.0,48.4,29.86,NNW,337,0.0,0.0,88,0.00,,,0.02,WUHU21636XXSP,2013-06-13 11:27:00,
2013-06-13 07:32:00,52.3,48.7,29.86,NNW,337,1.5,1.5,88,0.00,,,0.02,WUHU21636XXSP,2013-06-13 11:32:00,
2013-06-13 07:37:00,52.5,48.9,29.86,NNW,337,0.0,1.7,88,0.00,,,0.02,WUHU21636XXSP,2013-06-13 11:37:00,
2013-06-13 07:42:00,52.5,48.9,29.87,NNW,337,0.0,1.7,88,0.00,,,0.02,WUHU21636XXSP,2013-06-13 11:42:00,
2013-06-13 07:47:00,52.7,49.1,29.87,North,0,0.0,0.0,88,0.00,,,0.02,WUHU21636XXSP,2013-06-13 11:47:00,
2013-06-13 07:52:00,52.9,49.3,29.87,North,0,0.0,0.0,88,0.00,,,0.02,WUHU21636XXSP,2013-06-13 11:52:00,
2013-06-13 07:57:00,53.2,49.3,29.87,North,0,0.0,0.0,87,0.00,,,0.02,WUHU21636XXSP,2013-06-13 11:57:00,
2013-06-13 08:02:00,53.4,49.5,29.87,NNW,337,0.0,4.4,87,0.00,,,0.02,WUHU21636XXSP,2013-06-13 12:02:00,
2013-06-13 08:07:00,53.8,49.8,29.87,NNW,337,0.0,8.0,86,0.00,,,0.02,WUHU21636XXSP,2013-06-13 12:07:00,
2013-06-13 08:12:00,54.1,50.0,29.88,NW,315,0.0,8.0,86,0.00,,,0.02,WUHU21636XXSP,2013-06-13 12:12:00,
2013-06-13 08:17:00,54.3,50.2,29.88,WNW,292,2.4,2.4,86,0.00,,,0.02,WUHU21636XXSP,2013-06-13 12:17:00,
2013-06-13 08:22:00,54.5,50.4,29.88,NNW,337,0.0,2.4,86,0.00,,,0.02,WUHU21636XXSP,2013-06-13 12:22:00,
2013-06-13 08:27:00,55.0,50.2,29.88,NW,315,5.1,5.1,84,0.00,,,0.02,WUHU21636XXSP,2013-06-13 12:27:00,
2013-06-13 08:32:00,55.2,50.0,29.88,NW,315,3.8,11.8,83,0.00,,,0.02,WUHU21636XXSP,2013-06-13 12:32:00,
2013-06-13 08:37:00,55.9,51.1,29.89,ENE,67,0.0,11.8,84,0.00,,,0.02,WUHU21636XXSP,2013-06-13 12:37:00,
2013-06-13 08:42:00,56.5,50.9,29.89,NW,315,4.6,6.7,82,0.00,,,0.02,WUHU21636XXSP,2013-06-13 12:42:00,
2013-06-13 08:47:00,57.0,51.4,29.89,NW,315,0.0,6.7,81,0.00,,,0.02,WUHU21636XXSP,2013-06-13 12:47:00,
2013-06-13 08:52:00,57.4,51.4,29.89,NNW,337,3.8,9.6,81,0.00,,,0.02,WUHU21636XXSP,2013-06-13 12:52:00,
2013-06-13 08:57:00,58.1,52.2,29.89,NW,315,0.0,9.6,81,0.00,,,0.02,WUHU21636XXSP,2013-06-13 12:57:00,
2013-06-13 09:02:00,58.8,52.0,29.89,NNW,337,2.0,8.0,78,0.00,,,0.02,WUHU21636XXSP,2013-06-13 13:02:00,
2013-06-13 09:07:00,59.0,52.5,29.90,NNW,337,4.4,16.3,79,0.00,,,0.02,WUHU21636XXSP,2013-06-13 13:07:00,
2013-06-13 09:12:00,59.7,52.5,29.90,WNW,292,3.1,16.3,77,0.00,,,0.02,WUHU21636XXSP,2013-06-13 13:12:00,
2013-06-13 09:17:00,60.3,53.1,29.90,NNW,337,1.5,4.4,77,0.00,,,0.02,WUHU21636XXSP,2013-06-13 13:17:00,
2013-06-13 09:22:00,61.0,53.2,29.90,NW,315,2.0,2.4,76,0.00,,,0.02,WUHU21636XXSP,2013-06-13 13:22:00,
2013-06-13 09:27:00,61.5,53.8,29.90,North,0,0.0,2.4,76,0.00,,,0.02,WUHU21636XXSP,2013-06-13 13:27:00,
2013-06-13 09:32:00,62.1,54.0,29.90,NW,315,3.1,3.5,75,0.00,,,0.02,WUHU21636XXSP,2013-06-13 13:32:00,
2013-06-13 09:37:00,62.4,53.6,29.90,NW,315,5.5,8.2,73,0.00,,,0.02,WUHU21636XXSP,2013-06-13 13:37:00,
2013-06-13 09:42:00,61.7,53.6,29.90,NW,315,8.0,12.3,75,0.00,,,0.02,WUHU21636XXSP,2013-06-13 13:42:00,
2013-06-13 09:47:00,61.3,52.9,29.90,West,270,0.0,12.7,74,0.00,,,0.02,WUHU21636XXSP,2013-06-13 13:47:00,
2013-06-13 09:52:00,61.5,53.4,29.90,North,0,0.0,12.7,75,0.00,,,0.02,WUHU21636XXSP,2013-06-13 13:52:00,
2013-06-13 09:57:00,62.2,54.1,29.91,NNW,337,0.0,4.2,75,0.00,,,0.02,WUHU21636XXSP,2013-06-13 13:57:00,
2013-06-13 10:02:00,63.1,54.3,29.90,WNW,292,0.6,0.6,73,0.00,,,0.02,WUHU21636XXSP,2013-06-13 14:02:00,
2013-06-13 10:07:00,62.6,53.8,29.90,NW,315,4.0,4.0,73,0.00,,,0.02,WUHU21636XXSP,2013-06-13 14:07:00,
2013-06-13 10:12:00,63.0,54.5,29.90,West,270,0.6,4.0,74,0.00,,,0.02,WUHU21636XXSP,2013-06-13 14:12:00,
2013-06-13 10:17:00,64.0,55.2,29.90,WNW,292,0.0,2.0,73,0.00,,,0.02,WUHU21636XXSP,2013-06-13 14:17:00,
2013-06-13 10:22:00,64.9,55.2,29.90,NW,315,4.9,4.9,71,0.00,,,0.02,WUHU21636XXSP,2013-06-13 14:22:00,
2013-06-13 10:27:00,64.0,54.5,29.90,NW,315,4.4,18.5,71,0.00,,,0.02,WUHU21636XXSP,2013-06-13 14:27:00,
2013-06-13 10:32:00,64.0,55.2,29.90,NNW,337,1.5,18.5,73,0.00,,,0.02,WUHU21636XXSP,2013-06-13 14:32:00,
2013-06-13 10:37:00,63.7,54.9,29.90,NW,315,0.0,11.1,73,0.00,,,0.02,WUHU21636XXSP,2013-06-13 14:37:00,
2013-06-13 10:42:00,64.0,55.0,29.90,NW,315,5.1,11.1,73,0.00,,,0.02,WUHU21636XXSP,2013-06-13 14:42:00,
2013-06-13 10:47:00,63.1,54.7,29.91,NW,315,8.0,13.4,74,0.00,,,0.02,WUHU21636XXSP,2013-06-13 14:47:00,
2013-06-13 10:52:00,62.2,53.8,29.91,WNW,292,10.9,17.0,74,0.00,,,0.02,WUHU21636XXSP,2013-06-13 14:52:00,
2013-06-13 10:57:00,61.9,54.1,29.90,WNW,292,8.7,17.0,76,0.00,,,0.02,WUHU21636XXSP,2013-06-13 14:57:00,
2013-06-13 11:02:00,62.2,54.9,29.90,NW,315,6.7,17.0,78,0.00,,,0.02,WUHU21636XXSP,2013-06-13 15:02:00,
2013-06-13 11:07:00,62.8,56.1,29.91,North,0,4.9,16.5,79,0.00,,,0.02,WUHU21636XXSP,2013-06-13 15:07:00,
2013-06-13 11:12:00,63.9,56.5,29.91,WNW,292,3.8,16.5,77,0.00,,,0.02,WUHU21636XXSP,2013-06-13 15:12:00,
2013-06-13 11:17:00,64.8,56.1,29.91,NW,315,1.7,11.8,74,0.00,,,0.02,WUHU21636XXSP,2013-06-13 15:17:00,
2013-06-13 11:23:00,64.2,55.9,29.92,NW,315,9.1,32.2,75,0.00,,,0.02,WUHU21636XXSP,2013-06-13 15:23:00,
2013-06-13 11:27:00,64.2,55.8,29.92,NW,315,4.9,32.2,74,0.00,,,0.02,WUHU21636XXSP,2013-06-13 15:27:00,
2013-06-13 11:32:00,64.8,56.7,29.92,NNW,337,9.8,17.8,77,0.00,,,0.02,WUHU21636XXSP,2013-06-13 15:32:00,
2013-06-13 11:37:00,64.9,55.9,29.92,NW,315,12.0,17.2,74,0.00,,,0.02,WUHU21636XXSP,2013-06-13 15:37:00,
2013-06-13 11:43:00,65.1,57.2,29.92,NW,315,0.0,17.2,76,0.00,,,0.02,WUHU21636XXSP,2013-06-13 15:43:00,
2013-06-13 11:48:00,65.1,56.1,29.92,NNW,337,8.2,14.7,73,0.00,,,0.02,WUHU21636XXSP,2013-06-13 15:48:00,
2013-06-13 11:53:00,65.7,56.7,29.92,North,0,6.4,30.8,73,0.00,,,0.02,WUHU21636XXSP,2013-06-13 15:53:00,
2013-06-13 11:58:00,65.3,57.0,29.93,WNW,292,5.3,30.8,75,0.00,,,0.02,WUHU21636XXSP,2013-06-13 15:58:00,
2013-06-13 12:03:00,66.0,56.7,29.93,NNW,337,6.7,34.6,72,0.00,,,0.02,WUHU21636XXSP,2013-06-13 16:03:00,
2013-06-13 12:08:00,66.7,57.7,29.93,NNW,337,4.0,34.6,74,0.00,,,0.02,WUHU21636XXSP,2013-06-13 16:08:00,
2013-06-13 12:13:00,66.0,57.4,29.93,NNW,337,7.1,20.1,74,0.00,,,0.02,WUHU21636XXSP,2013-06-13 16:13:00,
2013-06-13 12:18:00,66.4,57.4,29.93,NW,315,0.0,20.1,73,0.00,,,0.02,WUHU21636XXSP,2013-06-13 16:18:00,
2013-06-13 12:23:00,67.3,58.3,29.93,ESE,112,0.6,18.1,73,0.00,,,0.02,WUHU21636XXSP,2013-06-13 16:23:00,
2013-06-13 12:28:00,68.4,59.0,29.93,NNW,337,2.6,3.8,72,0.00,,,0.02,WUHU21636XXSP,2013-06-13 16:28:00,
2013-06-13 12:33:00,67.5,57.7,29.93,NNE,22,3.3,10.2,71,0.00,,,0.02,WUHU21636XXSP,2013-06-13 16:33:00,
2013-06-13 12:38:00,67.6,57.9,29.94,ENE,67,2.9,10.2,71,0.00,,,0.02,WUHU21636XXSP,2013-06-13 16:38:00,
2013-06-13 12:43:00,67.6,57.9,29.94,NW,315,1.1,12.9,71,0.00,,,0.02,WUHU21636XXSP,2013-06-13 16:43:00,
2013-06-13 12:48:00,68.7,57.2,29.94,NW,315,5.8,12.9,67,0.00,,,0.02,WUHU21636XXSP,2013-06-13 16:48:00,
2013-06-13 12:53:00,68.5,58.3,29.94,NW,315,6.2,30.4,70,0.00,,,0.02,WUHU21636XXSP,2013-06-13 16:53:00,
2013-06-13 12:58:00,68.2,58.5,29.94,NNW,337,6.2,30.4,71,0.00,,,0.02,WUHU21636XXSP,2013-06-13 16:58:00,
2013-06-13 13:03:00,68.2,57.6,29.94,NW,315,12.0,19.0,69,0.00,,,0.02,WUHU21636XXSP,2013-06-13 17:03:00,
2013-06-13 13:08:00,68.5,57.6,29.94,NW,315,10.5,18.1,68,0.00,,,0.02,WUHU21636XXSP,2013-06-13 17:08:00,
2013-06-13 13:13:00,68.0,57.9,29.94,NW,315,8.9,18.1,70,0.00,,,0.02,WUHU21636XXSP,2013-06-13 17:13:00,
2013-06-13 13:18:00,68.5,57.9,29.94,NW,315,10.9,19.9,69,0.00,,,0.02,WUHU21636XXSP,2013-06-13 17:18:00,
2013-06-13 13:23:00,68.5,58.3,29.94,NNW,337,2.9,19.9,69,0.00,,,0.02,WUHU21636XXSP,2013-06-13 17:23:00,
2013-06-13 13:28:00,69.4,59.2,29.94,NW,315,4.4,17.8,70,0.00,,,0.02,WUHU21636XXSP,2013-06-13 17:28:00,
2013-06-13 13:33:00,69.6,58.8,29.94,NNW,337,9.3,15.6,69,0.00,,,0.02,WUHU21636XXSP,2013-06-13 17:33:00,
2013-06-13 13:38:00,69.4,59.5,29.94,NNW,337,2.2,21.0,71,0.00,,,0.02,WUHU21636XXSP,2013-06-13 17:38:00,
2013-06-13 13:43:00,70.7,60.4,29.94,ENE,67,3.8,21.0,70,0.00,,,0.02,WUHU21636XXSP,2013-06-13 17:43:00,
2013-06-13 13:48:00,70.5,59.7,29.95,NW,315,1.7,19.6,69,0.00,,,0.02,WUHU21636XXSP,2013-06-13 17:48:00,
2013-06-13 13:53:00,70.5,59.7,29.94,NW,315,12.3,19.6,69,0.00,,,0.02,WUHU21636XXSP,2013-06-13 17:53:00,
2013-06-13 13:58:00,70.5,58.8,29.94,North,0,5.5,19.4,67,0.00,,,0.02,WUHU21636XXSP,2013-06-13 17:58:00,
2013-06-13 14:03:00,70.3,59.5,29.95,NW,315,9.6,23.7,69,0.00,,,0.02,WUHU21636XXSP,2013-06-13 18:03:00,
2013-06-13 14:08:00,70.7,59.5,29.95,West,270,2.2,23.7,68,0.00,,,0.02,WUHU21636XXSP,2013-06-13 18:08:00,
2013-06-13 14:13:00,70.7,58.6,29.95,ENE,67,1.5,22.3,66,0.00,,,0.02,WUHU21636XXSP,2013-06-13 18:13:00,
2013-06-13 14:18:00,70.5,58.8,29.95,NW,315,11.4,18.3,67,0.00,,,0.02,WUHU21636XXSP,2013-06-13 18:18:00,
2013-06-13 14:23:00,70.9,58.8,29.95,NNW,337,8.0,22.3,66,0.00,,,0.02,WUHU21636XXSP,2013-06-13 18:23:00,
2013-06-13 14:28:00,70.9,59.2,29.95,NW,315,3.8,23.9,67,0.00,,,0.02,WUHU21636XXSP,2013-06-13 18:28:00,
2013-06-13 14:33:00,71.2,59.4,29.96,North,0,4.2,23.9,68,0.00,,,0.02,WUHU21636XXSP,2013-06-13 18:33:00,
2013-06-13 14:38:00,72.0,60.3,29.95,NW,315,9.8,11.6,67,0.00,,,0.02,WUHU21636XXSP,2013-06-13 18:38:00,
2013-06-13 14:43:00,72.7,61.5,29.96,NE,45,2.9,13.1,68,0.00,,,0.02,WUHU21636XXSP,2013-06-13 18:43:00,
2013-06-13 14:48:00,73.2,61.2,29.96,West,270,1.5,13.1,66,0.00,,,0.02,WUHU21636XXSP,2013-06-13 18:48:00,
2013-06-13 14:53:00,72.3,58.8,29.96,North,0,3.5,14.7,63,0.00,,,0.02,WUHU21636XXSP,2013-06-13 18:53:00,
2013-06-13 14:58:00,72.3,59.7,29.96,NNW,337,7.6,16.5,65,0.00,,,0.02,WUHU21636XXSP,2013-06-13 18:58:00,
2013-06-13 15:03:00,72.1,60.4,29.96,West,270,0.6,16.5,67,0.00,,,0.02,WUHU21636XXSP,2013-06-13 19:03:00,
2013-06-13 15:08:00,72.5,59.9,29.96,North,0,1.1,16.1,65,0.00,,,0.02,WUHU21636XXSP,2013-06-13 19:08:00,
2013-06-13 15:13:00,73.0,60.4,29.97,West,270,0.2,29.5,67,0.00,,,0.02,WUHU21636XXSP,2013-06-13 19:13:00,
2013-06-13 15:18:00,73.0,59.5,29.96,East,90,0.0,29.5,63,0.00,,,0.02,WUHU21636XXSP,2013-06-13 19:18:00,
2013-06-13 15:23:00,72.9,59.4,29.96,NW,315,3.5,14.5,63,0.00,,,0.02,WUHU21636XXSP,2013-06-13 19:23:00,
2013-06-13 15:28:00,73.2,60.3,29.96,NW,315,3.5,14.5,64,0.00,,,0.02,WUHU21636XXSP,2013-06-13 19:28:00,
2013-06-13 15:33:00,73.6,59.2,29.96,NW,315,2.2,10.7,61,0.00,,,0.02,WUHU21636XXSP,2013-06-13 19:33:00,
2013-06-13 15:38:00,73.2,58.8,29.97,NE,45,3.8,6.2,61,0.00,,,0.02,WUHU21636XXSP,2013-06-13 19:38:00,
2013-06-13 15:43:00,73.0,58.3,29.97,WNW,292,0.0,3.8,60,0.00,,,0.02,WUHU21636XXSP,2013-06-13 19:43:00,
2013-06-13 15:48:00,72.9,58.3,29.97,North,0,11.4,21.9,63,0.00,,,0.02,WUHU21636XXSP,2013-06-13 19:48:00,
2013-06-13 15:53:00,71.6,58.3,29.97,ESE,112,2.6,21.9,63,0.00,,,0.02,WUHU21636XXSP,2013-06-13 19:53:00,
2013-06-13 15:58:00,72.0,59.0,29.97,North,0,4.2,21.4,64,0.00,,,0.02,WUHU21636XXSP,2013-06-13 19:58:00,
2013-06-13 16:03:00,71.8,58.5,29.98,NW,315,3.3,7.3,63,0.00,,,0.02,WUHU21636XXSP,2013-06-13 20:03:00,
2013-06-13 16:08:00,72.7,59.7,29.98,ENE,67,2.9,16.7,63,0.00,,,0.02,WUHU21636XXSP,2013-06-13 20:08:00,
2013-06-13 16:13:00,72.3,59.7,29.98,SSE,157,0.0,22.5,65,0.00,,,0.02,WUHU21636XXSP,2013-06-13 20:13:00,
2013-06-13 16:18:00,72.5,58.1,29.98,NNE,22,3.3,22.5,64,0.00,,,0.02,WUHU21636XXSP,2013-06-13 20:18:00,
2013-06-13 16:23:00,72.7,59.7,29.98,ENE,67,0.0,3.3,63,0.00,,,0.02,WUHU21636XXSP,2013-06-13 20:23:00,
2013-06-13 16:28:00,72.3,58.1,29.99,NNW,337,0.0,5.3,63,0.00,,,0.02,WUHU21636XXSP,2013-06-13 20:28:00,
2013-06-13 16:33:00,71.8,58.8,29.99,NW,315,0.0,5.3,64,0.00,,,0.02,WUHU21636XXSP,2013-06-13 20:33:00,
2013-06-13 16:38:00,70.9,59.2,29.99,NW,315,3.8,19.0,67,0.00,,,0.02,WUHU21636XXSP,2013-06-13 20:38:00,
2013-06-13 16:43:00,70.5,57.6,29.99,West,270,8.5,30.4,64,0.00,,,0.02,WUHU21636XXSP,2013-06-13 20:43:00,
2013-06-13 16:48:00,70.0,58.6,29.99,NE,45,0.6,30.4,67,0.00,,,0.02,WUHU21636XXSP,2013-06-13 20:48:00,
2013-06-13 16:53:00,70.5,58.1,29.99,North,0,10.7,35.5,65,0.00,,,0.02,WUHU21636XXSP,2013-06-13 20:53:00,
2013-06-13 16:58:00,70.3,58.3,29.99,North,0,7.3,35.5,66,0.00,,,0.02,WUHU21636XXSP,2013-06-13 20:58:00,
2013-06-13 17:03:00,70.0,57.9,30.00,NNW,337,0.0,22.8,66,0.00,,,0.02,WUHU21636XXSP,2013-06-13 21:03:00,
2013-06-13 17:08:00,69.1,58.5,30.00,ENE,67,8.0,20.3,69,0.00,,,0.02,WUHU21636XXSP,2013-06-13 21:08:00,
2013-06-13 17:13:00,69.4,57.0,30.00,North,0,4.9,20.3,65,0.00,,,0.02,WUHU21636XXSP,2013-06-13 21:13:00,
2013-06-13 17:18:00,68.2,57.4,30.00,NNW,337,6.0,19.9,69,0.00,,,0.02,WUHU21636XXSP,2013-06-13 21:18:00,
2013-06-13 17:23:00,69.1,57.6,29.99,NE,45,2.6,19.9,67,0.00,,,0.02,WUHU21636XXSP,2013-06-13 21:23:00,
2013-06-13 17:28:00,69.1,57.2,30.00,NW,315,4.6,17.4,68,0.00,,,0.02,WUHU21636XXSP,2013-06-13 21:28:00,
2013-06-13 17:33:00,69.4,56.7,30.00,WSW,247,1.3,17.2,64,0.00,,,0.02,WUHU21636XXSP,2013-06-13 21:33:00,
2013-06-13 17:38:00,69.4,57.4,30.00,SE,135,4.0,17.2,66,0.00,,,0.02,WUHU21636XXSP,2013-06-13 21:38:00,
2013-06-13 17:43:00,70.2,57.4,30.00,SE,135,3.1,4.0,64,0.00,,,0.02,WUHU21636XXSP,2013-06-13 21:43:00,
2013-06-13 17:48:00,69.1,56.7,30.00,North,0,0.2,16.3,66,0.00,,,0.02,WUHU21636XXSP,2013-06-13 21:48:00,
2013-06-13 17:53:00,69.3,56.5,30.00,WNW,292,5.3,16.3,64,0.00,,,0.02,WUHU21636XXSP,2013-06-13 21:53:00,
2013-06-13 17:58:00,69.1,55.9,30.01,North,0,15.2,23.4,63,0.00,,,0.02,WUHU21636XXSP,2013-06-13 21:58:00,
2013-06-13 18:03:00,68.4,56.8,30.01,NE,45,2.2,23.4,67,0.00,,,0.02,WUHU21636XXSP,2013-06-13 22:03:00,
2013-06-13 18:08:00,68.9,56.7,30.01,NW,315,6.0,17.4,66,0.00,,,0.02,WUHU21636XXSP,2013-06-13 22:08:00,
2013-06-13 18:13:00,68.9,57.0,30.01,NW,315,2.6,20.8,65,0.00,,,0.02,WUHU21636XXSP,2013-06-13 22:13:00,
2013-06-13 18:18:00,69.1,56.1,30.01,NW,315,8.5,20.8,64,0.00,,,0.02,WUHU21636XXSP,2013-06-13 22:18:00,
2013-06-13 18:23:00,68.4,55.6,30.02,NNW,337,10.5,20.5,64,0.00,,,0.02,WUHU21636XXSP,2013-06-13 22:23:00,
2013-06-13 18:28:00,68.5,56.1,30.02,NNE,22,1.5,20.5,65,0.00,,,0.02,WUHU21636XXSP,2013-06-13 22:28:00,
2013-06-13 18:33:00,68.7,56.3,30.02,NNW,337,3.8,15.2,65,0.00,,,0.02,WUHU21636XXSP,2013-06-13 22:33:00,
2013-06-13 18:38:00,69.1,56.7,30.02,North,0,0.0,34.4,65,0.00,,,0.02,WUHU21636XXSP,2013-06-13 22:38:00,
2013-06-13 18:43:00,68.9,57.0,30.02,NW,315,2.0,34.4,64,0.00,,,0.02,WUHU21636XXSP,2013-06-13 22:43:00,
2013-06-13 18:48:00,68.9,56.5,30.02,NNW,337,1.5,13.1,64,0.00,,,0.02,WUHU21636XXSP,2013-06-13 22:48:00,
2013-06-13 18:53:00,68.9,56.1,30.02,NW,315,9.6,13.6,64,0.00,,,0.02,WUHU21636XXSP,2013-06-13 22:53:00,
2013-06-13 18:58:00,68.2,55.9,30.02,WNW,292,2.9,15.2,65,0.00,,,0.02,WUHU21636XXSP,2013-06-13 22:58:00,
2013-06-13 19:03:00,67.8,55.4,30.02,NNE,22,3.1,17.6,65,0.00,,,0.02,WUHU21636XXSP,2013-06-13 23:03:00,
2013-06-13 19:08:00,67.6,55.8,30.03,NW,315,3.5,17.6,66,0.00,,,0.02,WUHU21636XXSP,2013-06-13 23:08:00,
2013-06-13 19:13:00,67.3,55.8,30.03,NE,45,0.4,14.9,67,0.00,,,0.02,WUHU21636XXSP,2013-06-13 23:13:00,
2013-06-13 19:18:00,66.9,55.9,30.03,North,0,2.4,14.0,67,0.00,,,0.02,WUHU21636XXSP,2013-06-13 23:18:00,
2013-06-13 19:23:00,67.6,55.8,30.03,NNW,337,6.2,14.0,66,0.00,,,0.02,WUHU21636XXSP,2013-06-13 23:23:00,
2013-06-13 19:28:00,67.6,55.8,30.04,West,270,3.5,12.9,65,0.00,,,0.02,WUHU21636XXSP,2013-06-13 23:28:00,
2013-06-13 19:33:00,67.3,55.0,30.03,North,0,0.0,12.9,65,0.00,,,0.02,WUHU21636XXSP,2013-06-13 23:33:00,
2013-06-13 19:38:00,67.3,55.4,30.03,East,90,0.0,16.5,66,0.00,,,0.02,WUHU21636XXSP,2013-06-13 23:38:00,
2013-06-13 19:43:00,67.5,55.2,30.03,ENE,67,3.5,16.5,65,0.00,,,0.02,WUHU21636XXSP,2013-06-13 23:43:00,
2013-06-13 19:48:00,67.1,55.2,30.04,North,0,2.6,3.5,66,0.00,,,0.02,WUHU21636XXSP,2013-06-13 23:48:00,
2013-06-13 19:53:00,66.9,55.0,30.04,NNE,22,0.0,3.5,66,0.00,,,0.02,WUHU21636XXSP,2013-06-13 23:53:00,
2013-06-13 19:58:00,66.6,54.7,30.04,NE,45,0.0,3.5,66,0.00,,,0.02,WUHU21636XXSP,2013-06-13 23:58:00,
2013-06-13 20:03:00,66.2,54.3,30.04,East,90,0.0,3.3,66,0.00,,,0.02,WUHU21636XXSP,2013-06-14 00:03:00,
2013-06-13 20:08:00,65.8,54.5,30.04,NNE,22,1.1,7.8,67,0.00,,,0.02,WUHU21636XXSP,2013-06-14 00:08:00,
2013-06-13 20:13:00,65.8,54.5,30.05,WSW,247,4.4,7.8,67,0.00,,,0.02,WUHU21636XXSP,2013-06-14 00:13:00,
2013-06-13 20:18:00,65.8,54.5,30.05,NW,315,0.0,4.4,67,0.00,,,0.02,WUHU21636XXSP,2013-06-14 00:18:00,
2013-06-13 20:23:00,65.3,54.0,30.05,ESE,112,3.3,4.0,67,0.00,,,0.02,WUHU21636XXSP,2013-06-14 00:23:00,
2013-06-13 20:28:00,64.9,53.6,30.05,West,270,0.0,3.3,67,0.00,,,0.02,WUHU21636XXSP,2013-06-14 00:28:00,
2013-06-13 20:33:00,64.6,53.2,30.05,ESE,112,3.5,3.5,67,0.00,,,0.02,WUHU21636XXSP,2013-06-14 00:33:00,
2013-06-13 20:38:00,64.0,53.6,30.05,SSE,157,0.0,3.5,69,0.00,,,0.02,WUHU21636XXSP,2013-06-14 00:38:00,
2013-06-13 20:43:00,63.7,53.2,30.05,WSW,247,0.0,9.3,69,0.00,,,0.02,WUHU21636XXSP,2013-06-14 00:43:00,
2013-06-13 20:48:00,63.1,52.7,30.05,South,180,2.0,9.3,69,0.00,,,0.02,WUHU21636XXSP,2013-06-14 00:48:00,
2013-06-13 20:53:00,62.8,53.2,30.06,NNW,337,5.5,17.0,71,0.00,,,0.02,WUHU21636XXSP,2013-06-14 00:53:00,
2013-06-13 20:58:00,62.4,52.9,30.05,WNW,292,0.0,17.0,71,0.00,,,0.02,WUHU21636XXSP,2013-06-14 00:58:00,
2013-06-13 21:03:00,62.2,52.7,30.05,NNE,22,0.0,11.4,71,0.00,,,0.02,WUHU21636XXSP,2013-06-14 01:03:00,
2013-06-13 21:08:00,61.5,52.2,30.05,North,0,2.6,7.3,72,0.00,,,0.02,WUHU21636XXSP,2013-06-14 01:08:00,
2013-06-13 21:13:00,60.6,52.0,30.05,NW,315,3.3,12.9,73,0.00,,,0.02,WUHU21636XXSP,2013-06-14 01:13:00,
2013-06-13 21:18:00,60.4,52.2,30.05,NNW,337,1.7,12.9,74,0.00,,,0.02,WUHU21636XXSP,2013-06-14 01:18:00,
2013-06-13 21:23:00,59.7,51.8,30.05,NW,315,0.0,6.4,75,0.00,,,0.02,WUHU21636XXSP,2013-06-14 01:23:00,
2013-06-13 21:28:00,59.2,51.3,30.05,NW,315,0.0,8.5,75,0.00,,,0.02,WUHU21636XXSP,2013-06-14 01:28:00,
2013-06-13 21:33:00,59.0,51.4,30.05,NW,315,0.0,8.5,76,0.00,,,0.02,WUHU21636XXSP,2013-06-14 01:33:00,
2013-06-13 21:38:00,59.0,51.4,30.05,NE,45,0.8,0.8,77,0.00,,,0.02,WUHU21636XXSP,2013-06-14 01:38:00,
2013-06-13 21:43:00,58.3,51.4,30.05,NW,315,0.0,10.2,78,0.00,,,0.02,WUHU21636XXSP,2013-06-14 01:43:00,
2013-06-13 21:48:00,58.1,51.3,30.05,WNW,292,0.0,10.2,78,0.00,,,0.02,WUHU21636XXSP,2013-06-14 01:48:00,
2013-06-13 21:53:00,57.9,51.1,30.05,NNW,337,3.5,3.5,78,0.00,,,0.02,WUHU21636XXSP,2013-06-14 01:53:00,
2013-06-13 21:58:00,57.7,50.9,30.06,NNW,337,0.0,3.5,79,0.00,,,0.02,WUHU21636XXSP,2013-06-14 01:58:00,
2013-06-13 22:03:00,57.4,51.3,30.06,West,270,1.3,3.3,80,0.00,,,0.02,WUHU21636XXSP,2013-06-14 02:03:00,
2013-06-13 22:08:00,57.4,51.3,30.06,NW,315,0.0,1.3,80,0.00,,,0.02,WUHU21636XXSP,2013-06-14 02:08:00,
2013-06-13 22:13:00,57.0,50.9,30.06,North,0,0.0,2.0,80,0.00,,,0.02,WUHU21636XXSP,2013-06-14 02:13:00,
2013-06-13 22:18:00,57.0,50.9,30.06,NNW,337,0.0,2.0,80,0.00,,,0.02,WUHU21636XXSP,2013-06-14 02:18:00,
2013-06-13 22:23:00,56.8,50.7,30.06,NNW,337,0.0,0.0,80,0.00,,,0.02,WUHU21636XXSP,2013-06-14 02:23:00,
2013-06-13 22:28:00,56.8,50.7,30.06,NE,45,0.0,0.0,80,0.00,,,0.02,WUHU21636XXSP,2013-06-14 02:28:00,
2013-06-13 22:33:00,56.7,50.5,30.06,ESE,112,0.0,0.0,80,0.00,,,0.02,WUHU21636XXSP,2013-06-14 02:33:00,
2013-06-13 22:38:00,56.7,50.5,30.06,ESE,112,0.0,0.0,80,0.00,,,0.02,WUHU21636XXSP,2013-06-14 02:38:00,
2013-06-13 22:43:00,56.3,50.2,30.06,SSW,202,0.0,0.0,80,0.00,,,0.02,WUHU21636XXSP,2013-06-14 02:43:00,
2013-06-13 22:48:00,56.3,50.2,30.06,SSW,202,0.0,0.0,81,0.00,,,0.02,WUHU21636XXSP,2013-06-14 02:48:00,
2013-06-13 22:53:00,56.1,50.2,30.06,NNW,337,0.0,0.0,81,0.00,,,0.02,WUHU21636XXSP,2013-06-14 02:53:00,
2013-06-13 22:58:00,56.1,50.2,30.06,NNW,337,0.0,0.0,81,0.00,,,0.02,WUHU21636XXSP,2013-06-14 02:58:00,
2013-06-13 23:03:00,55.9,50.4,30.06,NW,315,0.0,0.0,82,0.00,,,0.02,WUHU21636XXSP,2013-06-14 03:03:00,
2013-06-13 23:08:00,55.8,49.8,30.06,NW,315,2.6,2.6,81,0.00,,,0.02,WUHU21636XXSP,2013-06-14 03:08:00,
2013-06-13 23:13:00,55.8,49.8,30.06,WNW,292,0.0,2.6,81,0.00,,,0.02,WUHU21636XXSP,2013-06-14 03:13:00,
2013-06-13 23:18:00,55.6,50.0,30.06,WNW,292,0.0,2.6,82,0.00,,,0.02,WUHU21636XXSP,2013-06-14 03:18:00,
2013-06-13 23:23:00,55.2,49.6,30.06,WNW,292,0.0,0.0,82,0.00,,,0.02,WUHU21636XXSP,2013-06-14 03:23:00,
2013-06-13 23:28:00,55.2,49.6,30.07,WNW,292,0.0,0.0,82,0.00,,,0.02,WUHU21636XXSP,2013-06-14 03:28:00,
2013-06-13 23:33:00,55.0,49.5,30.07,WNW,292,0.0,0.0,82,0.00,,,0.02,WUHU21636XXSP,2013-06-14 03:33:00,
2013-06-13 23:38:00,54.7,49.1,30.07,WSW,247,0.0,0.0,82,0.00,,,0.02,WUHU21636XXSP,2013-06-14 03:38:00,
2013-06-13 23:43:00,54.7,49.1,30.07,WSW,247,0.0,0.0,83,0.00,,,0.02,WUHU21636XXSP,2013-06-14 03:43:00,
2013-06-13 23:48:00,54.5,49.3,30.07,WSW,247,0.0,0.0,83,0.00,,,0.02,WUHU21636XXSP,2013-06-14 03:48:00,
2013-06-13 23:53:00,54.3,49.1,30.07,WSW,247,0.0,0.0,83,0.00,,,0.02,WUHU21636XXSP,2013-06-14 03:53:00,
2013-06-13 23:58:00,54.1,48.9,30.08,WSW,247,0.0,0.0,83,0.00,,,0.02,WUHU21636XXSP,2013-06-14 03:58:00,